createdAt,value
2023-04-25T00:02:24.643Z,0.40
2023-04-25T00:04:54.201Z,0.50
2023-04-25T00:07:23.643Z,0.63
2023-04-25T00:09:52.658Z,0.50
2023-04-25T00:12:21.815Z,0.52
2023-04-25T00:14:56.908Z,0.50
2023-04-25T00:17:28.789Z,0.60
2023-04-25T00:19:58.390Z,0.47
2023-04-25T00:22:27.500Z,0.40
2023-04-25T00:25:10.115Z,0.40
2023-04-25T00:27:45.433Z,0.40
2023-04-25T00:30:16.004Z,0.40
2023-04-25T00:32:45.355Z,0.40
2023-04-25T00:35:16.808Z,0.30
2023-04-25T00:37:46.125Z,0.38
2023-04-25T00:40:18.074Z,0.50
2023-04-25T00:42:48.682Z,0.50
2023-04-25T00:45:17.767Z,0.30
2023-04-25T00:47:49.388Z,0.40
2023-04-25T00:50:18.689Z,0.40
2023-04-25T00:52:50.189Z,0.30
2023-04-25T00:55:19.674Z,0.40
2023-04-25T00:57:48.968Z,0.88
2023-04-25T01:00:18.433Z,0.40
2023-04-25T01:02:48.766Z,0.50
2023-04-25T01:05:21.045Z,0.70
2023-04-25T01:07:56.570Z,0.40
2023-04-25T01:10:25.994Z,0.40
2023-04-25T01:12:55.222Z,0.40
2023-04-25T01:15:24.395Z,0.50
2023-04-25T01:17:58.851Z,0.40
2023-04-25T01:20:30.257Z,0.50
2023-04-25T01:22:59.509Z,0.40
2023-04-25T01:25:28.702Z,0.55
2023-04-25T01:27:58.840Z,0.50
2023-04-25T01:30:34.069Z,0.50
2023-04-25T01:33:07.222Z,0.35
2023-04-25T01:35:36.759Z,0.38
2023-04-25T01:38:05.697Z,0.40
2023-04-25T01:40:42.244Z,0.40
2023-04-25T01:43:13.840Z,0.50
2023-04-25T01:45:44.531Z,0.40
2023-04-25T01:48:15.936Z,0.40
2023-04-25T01:50:47.210Z,0.45
2023-04-25T01:53:16.616Z,0.50
2023-04-25T01:55:49.849Z,0.60
2023-04-25T01:58:22.106Z,0.40
2023-04-25T02:01:13.930Z,0.50
2023-04-25T02:03:49.419Z,0.40
2023-04-25T02:06:36.516Z,0.50
2023-04-25T02:09:05.714Z,0.60
2023-04-25T02:11:34.666Z,0.70
2023-04-25T02:14:30.587Z,2.40
2023-04-25T02:17:18.126Z,1.20
2023-04-25T02:19:47.768Z,1.10
2023-04-25T02:22:16.822Z,0.85
2023-04-25T02:24:45.804Z,0.88
2023-04-25T02:27:14.819Z,1.25
2023-04-25T02:29:43.854Z,1.15
2023-04-25T02:32:13.633Z,1.65
2023-04-25T02:34:42.801Z,1.35
2023-04-25T02:37:14.740Z,1.00
2023-04-25T02:39:43.968Z,1.00
2023-04-25T02:42:12.935Z,0.90
2023-04-25T02:44:41.948Z,0.90
2023-04-25T02:47:11.071Z,0.80
2023-04-25T02:49:40.056Z,0.90
2023-04-25T02:52:09.330Z,0.90
2023-04-25T02:54:38.322Z,1.13
2023-04-25T02:57:07.667Z,1.02
2023-04-25T02:59:39.429Z,0.77
2023-04-25T03:02:08.509Z,0.80
2023-04-25T03:04:37.759Z,0.70
2023-04-25T03:07:07.483Z,0.88
2023-04-25T03:09:36.850Z,0.93
2023-04-25T03:12:06.201Z,0.85
2023-04-25T03:14:36.506Z,0.60
2023-04-25T03:17:05.578Z,0.68
2023-04-25T03:19:34.679Z,0.70
2023-04-25T03:22:03.722Z,0.88
2023-04-25T03:24:32.757Z,1.10
2023-04-25T03:27:03.225Z,0.70
2023-04-25T03:29:32.383Z,0.60
2023-04-25T03:32:04.848Z,0.93
2023-04-25T03:34:33.923Z,1.08
2023-04-25T03:37:03.309Z,1.15
2023-04-25T03:39:40.330Z,1.00
2023-04-25T03:42:10.003Z,1.20
2023-04-25T03:44:38.920Z,1.58
2023-04-25T03:47:08.088Z,1.90
2023-04-25T03:49:41.864Z,1.20
2023-04-25T03:52:10.943Z,0.90
2023-04-25T03:54:42.734Z,0.80
2023-04-25T03:57:15.565Z,0.70
2023-04-25T03:59:46.196Z,0.80
2023-04-25T04:02:16.863Z,0.80
2023-04-25T04:04:46.341Z,0.80
2023-04-25T04:07:16.389Z,1.40
2023-04-25T04:09:56.643Z,1.52
2023-04-25T04:12:32.763Z,3.40
2023-04-25T04:15:02.461Z,5.03
2023-04-25T04:17:32.122Z,8.48
2023-04-25T04:20:01.337Z,7.30
2023-04-25T04:22:33.696Z,4.15
2023-04-25T04:25:08.780Z,2.58
2023-04-25T04:27:56.666Z,1.92
2023-04-25T04:30:32.791Z,2.35
2023-04-25T04:33:05.414Z,3.50
2023-04-25T04:35:34.858Z,5.78
2023-04-25T04:38:06.657Z,6.50
2023-04-25T04:40:42.633Z,4.32
2023-04-25T04:43:41.434Z,3.95
2023-04-25T04:46:20.331Z,4.22
2023-04-25T04:49:21.958Z,2.70
2023-04-25T04:52:02.536Z,1.60
2023-04-25T04:55:05.157Z,1.20
2023-04-25T04:57:57.384Z,0.80
2023-04-25T05:00:50.561Z,0.70
2023-04-25T05:03:38.650Z,0.70
2023-04-25T05:06:28.666Z,0.60
2023-04-25T05:09:36.300Z,0.63
2023-04-25T05:12:13.824Z,0.80
2023-04-25T05:15:08.421Z,0.70
2023-04-25T05:18:08.655Z,0.70
2023-04-25T05:20:50.690Z,0.70
2023-04-25T05:23:37.447Z,0.68
2023-04-25T05:26:27.873Z,0.70
2023-04-25T05:29:22.882Z,0.77
2023-04-25T05:32:20.955Z,0.60
2023-04-25T05:34:51.840Z,0.73
2023-04-25T05:37:35.329Z,0.82
2023-04-25T05:40:15.886Z,0.73
2023-04-25T05:43:03.358Z,0.90
2023-04-25T05:45:45.968Z,0.73
2023-04-25T05:48:43.410Z,0.60
2023-04-25T05:51:38.479Z,0.77
2023-04-25T05:54:28.916Z,0.63
2023-04-25T05:56:59.798Z,0.65
2023-04-25T05:59:28.858Z,0.70
2023-04-25T06:01:57.831Z,0.70
2023-04-25T06:04:27.895Z,0.60
2023-04-25T06:06:57.201Z,0.60
2023-04-25T06:09:26.136Z,0.85
2023-04-25T06:11:56.510Z,0.80
2023-04-25T06:14:27.194Z,0.60
2023-04-25T06:16:57.419Z,0.60
2023-04-25T06:19:26.423Z,1.25
2023-04-25T06:21:55.406Z,1.00
2023-04-25T06:24:24.527Z,0.80
2023-04-25T06:26:54.463Z,0.70
2023-04-25T06:29:23.793Z,0.80
2023-04-25T06:31:53.175Z,0.70
2023-04-25T06:34:23.842Z,0.80
2023-04-25T06:36:52.950Z,0.80
2023-04-25T06:39:25.104Z,0.75
2023-04-25T06:41:55.196Z,1.17
2023-04-25T06:44:48.513Z,0.80
2023-04-25T06:47:20.571Z,0.70
2023-04-25T06:49:51.073Z,0.80
2023-04-25T06:52:20.352Z,0.73
2023-04-25T06:54:52.855Z,0.80
2023-04-25T06:57:36.970Z,0.70
2023-04-25T07:00:25.891Z,0.80
2023-04-25T07:02:56.224Z,0.60
2023-04-25T07:05:25.835Z,0.65
2023-04-25T07:07:55.044Z,0.80
2023-04-25T07:10:24.196Z,0.90
2023-04-25T07:12:53.330Z,0.70
2023-04-25T07:15:22.858Z,0.75
2023-04-25T07:17:53.372Z,0.70
2023-04-25T07:20:22.661Z,0.60
2023-04-25T07:22:51.998Z,0.60
2023-04-25T07:25:23.530Z,0.73
2023-04-25T07:27:52.882Z,0.90
2023-04-25T07:30:24.687Z,0.93
2023-04-25T07:32:53.844Z,0.95
2023-04-25T07:35:22.920Z,0.90
2023-04-25T07:37:52.311Z,0.82
2023-04-25T07:40:22.310Z,0.70
2023-04-25T07:43:03.678Z,0.82
2023-04-25T07:45:49.577Z,0.70
2023-04-25T07:48:21.825Z,0.75
2023-04-25T07:50:53.372Z,0.80
2023-04-25T07:53:22.657Z,0.88
2023-04-25T07:55:56.270Z,0.98
2023-04-25T07:58:26.137Z,0.70
2023-04-25T08:01:07.311Z,0.73
2023-04-25T08:03:48.524Z,0.98
2023-04-25T08:06:24.475Z,1.10
2023-04-25T08:09:13.952Z,0.93
2023-04-25T08:11:45.428Z,0.70
2023-04-25T08:14:17.533Z,0.60
2023-04-25T08:16:50.931Z,0.80
2023-04-25T08:19:24.068Z,0.80
2023-04-25T08:21:54.056Z,0.68
2023-04-25T08:24:32.198Z,0.70
2023-04-25T08:27:17.828Z,0.63
2023-04-25T08:29:47.161Z,0.90
2023-04-25T08:32:16.860Z,0.90
2023-04-25T08:34:59.078Z,0.70
2023-04-25T08:37:28.806Z,0.88
2023-04-25T08:40:08.983Z,0.90
2023-04-25T08:43:06.815Z,0.80
2023-04-25T08:45:36.915Z,0.82
2023-04-25T08:48:08.935Z,1.00
2023-04-25T08:50:53.661Z,0.88
2023-04-25T08:53:29.151Z,0.65
2023-04-25T08:56:03.542Z,1.10
2023-04-25T08:58:38.262Z,0.93
2023-04-25T09:01:08.794Z,1.65
2023-04-25T09:03:46.835Z,0.90
2023-04-25T09:06:23.703Z,0.90
2023-04-25T09:11:32.555Z,0.75
2023-04-25T09:14:30.659Z,1.00
2023-04-25T09:17:09.515Z,1.10
2023-04-25T09:20:09.229Z,1.05
2023-04-25T09:22:39.373Z,1.48
2023-04-25T09:25:13.167Z,1.20
2023-04-25T09:28:22.804Z,0.90
2023-04-25T09:30:55.040Z,1.10
2023-04-25T09:33:37.041Z,0.95
2023-04-25T09:36:17.380Z,1.17
2023-04-25T09:39:03.107Z,0.90
2023-04-25T09:41:46.714Z,0.88
2023-04-25T09:44:16.225Z,0.85
2023-04-25T09:46:55.376Z,1.05
2023-04-25T09:49:31.729Z,0.90
2023-04-25T09:52:11.208Z,0.90
2023-04-25T09:57:27.256Z,0.70
2023-04-25T10:00:07.219Z,1.00
2023-04-25T10:02:46.024Z,1.00
2023-04-25T10:05:35.573Z,1.00
2023-04-25T10:08:16.495Z,0.93
2023-04-25T10:10:46.592Z,0.80
2023-04-25T10:13:16.557Z,0.75
2023-04-25T10:15:46.712Z,1.08
2023-04-25T10:18:16.805Z,0.70
2023-04-25T10:21:25.321Z,0.90
2023-04-25T10:25:57.710Z,0.98
2023-04-25T10:31:59.793Z,0.90
2023-04-25T10:34:56.350Z,1.00
2023-04-25T10:37:26.922Z,0.90
2023-04-25T10:39:56.299Z,0.95
2023-04-25T10:42:25.243Z,0.70
2023-04-25T10:45:07.957Z,0.77
2023-04-25T10:47:38.846Z,0.90
2023-04-25T10:50:11.357Z,0.70
2023-04-25T10:52:43.491Z,1.23
2023-04-25T10:55:13.024Z,0.75
2023-04-25T10:57:45.778Z,0.90
2023-04-25T11:00:17.697Z,0.90
2023-04-25T11:02:53.738Z,0.80
2023-04-25T11:05:36.526Z,0.88
2023-04-25T11:10:42.942Z,1.13
2023-04-25T11:13:11.879Z,1.02
2023-04-25T11:15:41.388Z,1.00
2023-04-25T11:18:10.577Z,1.20
2023-04-25T11:20:39.547Z,1.00
2023-04-25T11:23:08.677Z,0.90
2023-04-25T11:25:39.092Z,0.80
2023-04-25T11:28:08.168Z,1.42
2023-04-25T11:30:37.163Z,0.90
2023-04-25T11:33:06.360Z,1.17
2023-04-25T11:35:35.763Z,1.10
2023-04-25T11:38:05.022Z,0.90
2023-04-25T11:40:34.082Z,0.90
2023-04-25T11:43:03.795Z,0.90
2023-04-25T11:45:33.055Z,0.77
2023-04-25T11:48:04.714Z,0.80
2023-04-25T11:50:33.936Z,1.00
2023-04-25T11:53:03.401Z,1.20
2023-04-25T11:55:32.883Z,0.90
2023-04-25T11:58:05.727Z,0.98
2023-04-25T12:00:35.017Z,0.95
2023-04-25T12:03:05.047Z,1.10
2023-04-25T12:05:35.432Z,1.55
2023-04-25T12:08:18.021Z,0.90
2023-04-25T12:10:50.457Z,0.98
2023-04-25T12:13:24.633Z,1.05
2023-04-25T12:15:56.744Z,1.17
2023-04-25T12:18:29.316Z,1.00
2023-04-25T12:20:58.420Z,1.00
2023-04-25T12:23:29.704Z,0.90
2023-04-25T12:25:59.650Z,0.98
2023-04-25T12:28:33.658Z,0.80
2023-04-25T12:31:07.758Z,0.80
2023-04-25T12:33:38.887Z,0.82
2023-04-25T12:36:13.592Z,0.68
2023-04-25T12:38:44.521Z,0.80
2023-04-25T12:41:13.601Z,0.70
2023-04-25T12:43:42.603Z,0.60
2023-04-25T12:46:11.721Z,0.90
2023-04-25T12:48:40.711Z,0.88
2023-04-25T12:51:09.630Z,1.15
2023-04-25T12:53:40.746Z,0.90
2023-04-25T12:56:10.531Z,0.63
2023-04-25T12:58:39.621Z,1.25
2023-04-25T13:01:08.986Z,0.98
2023-04-25T13:03:38.197Z,0.93
2023-04-25T13:06:08.345Z,0.70
2023-04-25T13:08:38.575Z,0.63
2023-04-25T13:11:08.296Z,0.55
2023-04-25T13:13:38.413Z,0.80
2023-04-25T13:16:07.721Z,0.80
2023-04-25T13:18:39.230Z,0.90
2023-04-25T13:21:08.221Z,1.13
2023-04-25T13:23:37.282Z,0.77
2023-04-25T13:26:08.617Z,0.70
2023-04-25T13:28:37.658Z,0.80
2023-04-25T13:31:07.614Z,0.88
2023-04-25T13:33:36.615Z,0.98
2023-04-25T13:36:05.890Z,0.77
2023-04-25T13:38:35.998Z,0.75
2023-04-25T13:41:07.707Z,1.08
2023-04-25T13:43:36.751Z,0.93
2023-04-25T13:46:06.381Z,0.90
2023-04-25T13:48:35.532Z,1.08
2023-04-25T13:51:04.793Z,0.70
2023-04-25T13:53:33.869Z,0.98
2023-04-25T13:56:04.191Z,0.80
2023-04-25T13:58:34.226Z,0.90
2023-04-25T14:01:03.549Z,0.90
2023-04-25T14:03:33.268Z,1.38
2023-04-25T14:06:02.497Z,1.00
2023-04-25T14:08:34.685Z,0.85
2023-04-25T14:11:03.694Z,1.10
2023-04-25T14:13:32.798Z,0.70
2023-04-25T14:16:01.956Z,0.80
2023-04-25T14:18:30.917Z,1.17
2023-04-25T14:20:59.959Z,2.28
2023-04-25T14:23:29.088Z,0.73
2023-04-25T14:26:00.374Z,0.90
2023-04-25T14:28:29.634Z,0.98
2023-04-25T14:30:58.672Z,1.15
2023-04-25T14:33:27.713Z,1.00
2023-04-25T14:35:56.997Z,0.93
2023-04-25T14:38:29.269Z,1.08
2023-04-25T14:41:07.594Z,1.08
2023-04-25T14:43:38.849Z,1.15
2023-04-25T14:46:08.455Z,0.98
2023-04-25T14:48:37.593Z,1.00
2023-04-25T14:51:06.754Z,1.20
2023-04-25T14:53:35.844Z,1.02
2023-04-25T14:56:05.563Z,1.00
2023-04-25T14:58:34.949Z,0.90
2023-04-25T15:01:04.090Z,1.10
2023-04-25T15:03:33.930Z,1.40
2023-04-25T15:06:03.468Z,1.92
2023-04-25T15:08:33.171Z,1.20
2023-04-25T15:11:05.312Z,1.00
2023-04-25T15:13:36.575Z,0.90
2023-04-25T15:16:05.990Z,1.30
2023-04-25T15:18:35.172Z,1.25
2023-04-25T15:21:04.294Z,1.58
2023-04-25T15:23:33.310Z,1.30
2023-04-25T15:26:02.292Z,1.33
2023-04-25T15:28:31.296Z,1.00
2023-04-25T15:31:00.871Z,0.90
2023-04-25T15:33:29.910Z,1.15
2023-04-25T15:35:59.673Z,1.00
2023-04-25T15:38:30.179Z,1.02
2023-04-25T15:40:59.280Z,1.20
2023-04-25T15:43:28.272Z,1.35
2023-04-25T15:45:57.585Z,1.17
2023-04-25T15:48:27.196Z,1.13
2023-04-25T15:50:57.020Z,1.10
2023-04-25T15:53:26.135Z,0.88
2023-04-25T15:55:55.086Z,0.73
2023-04-25T15:58:24.379Z,0.82
2023-04-25T16:00:53.395Z,0.80
2023-04-25T16:03:23.102Z,1.20
2023-04-25T16:05:52.228Z,1.05
2023-04-25T16:08:21.139Z,0.88
2023-04-25T16:10:50.820Z,0.93
2023-04-25T16:13:19.826Z,0.90
2023-04-25T16:15:48.781Z,0.80
2023-04-25T16:18:17.748Z,1.13
2023-04-25T16:20:47.000Z,0.95
2023-04-25T16:23:15.878Z,1.15
2023-04-25T16:25:46.965Z,0.80
2023-04-25T16:28:16.088Z,1.38
2023-04-25T16:30:45.252Z,0.90
2023-04-25T16:33:14.505Z,1.08
2023-04-25T16:35:43.417Z,0.88
2023-04-25T16:38:12.351Z,1.23
2023-04-25T16:40:41.346Z,0.85
2023-04-25T16:43:10.575Z,0.90
2023-04-25T16:45:39.602Z,1.00
2023-04-25T16:48:08.936Z,1.05
2023-04-25T16:54:29.098Z,1.48
2023-04-25T16:57:28.445Z,0.90
2023-04-25T17:00:17.166Z,0.90
2023-04-25T17:06:45.027Z,1.25
2023-04-25T17:09:56.914Z,1.10
2023-04-25T17:12:32.251Z,2.30
2023-04-25T17:15:10.843Z,0.90
2023-04-25T17:22:07.919Z,0.90
2023-04-25T17:24:53.142Z,1.63
2023-04-25T17:28:11.276Z,1.15
2023-04-25T17:31:33.525Z,1.00
2023-04-25T17:33:48.425Z,1.05
2023-04-25T17:36:25.564Z,1.08
2023-04-25T17:39:24.089Z,1.92
2023-04-25T17:42:15.819Z,0.82
2023-04-25T17:45:18.900Z,1.02
2023-04-25T17:48:35.812Z,1.25
2023-04-25T17:51:36.803Z,1.02
2023-04-25T17:54:29.308Z,1.08
2023-04-25T17:57:56.780Z,1.10
2023-04-25T18:00:31.192Z,1.30
2023-04-25T18:03:41.604Z,1.10
2023-04-25T18:16:13.674Z,1.05
2023-04-25T18:19:06.540Z,0.85
2023-04-25T18:21:46.977Z,0.80
2023-04-25T18:31:27.440Z,1.25
2023-04-25T18:34:15.163Z,1.13
2023-04-25T18:37:05.188Z,1.20
2023-04-25T18:39:47.201Z,0.77
2023-04-25T18:48:24.681Z,0.95
2023-04-25T18:51:02.534Z,0.73
2023-04-25T19:17:02.266Z,0.90
2023-04-25T19:19:52.495Z,0.70
2023-04-25T19:22:37.344Z,0.80
2023-04-25T19:25:21.414Z,0.70
2023-04-25T19:28:51.194Z,0.73
2023-04-25T19:31:39.688Z,0.68
2023-04-25T19:41:35.507Z,0.90
2023-04-25T19:48:28.241Z,1.52
2023-04-25T19:51:33.822Z,0.90
2023-04-25T19:54:31.844Z,0.73
2023-04-25T20:05:58.670Z,0.70
2023-04-25T20:08:50.521Z,0.50
2023-04-25T20:12:35.712Z,0.90
2023-04-25T20:15:24.168Z,0.60
2023-04-25T20:18:14.931Z,0.80
2023-04-25T21:09:37.556Z,0.50
2023-04-25T21:40:13.457Z,0.60
2023-04-25T21:43:10.756Z,0.98
2023-04-25T22:01:34.394Z,0.70
2023-04-25T22:05:25.594Z,0.82
2023-04-25T22:09:05.737Z,0.73
2023-04-25T22:22:55.345Z,0.80
2023-04-25T22:26:39.104Z,0.70
2023-04-25T22:42:14.469Z,0.50
2023-04-25T22:49:46.173Z,0.70
2023-04-25T22:53:00.044Z,0.60
2023-04-25T23:52:25.795Z,0.80
